Terminal Aerodrome Forecast
Issued by NWS Burlington, VT

Home | Current Version | Previous Version | Text Only | Print | Product List | Glossary On
Versions: 1 2 3 4 5 6 7 8 9 10 11 12 13 14 15
000
FTUS41 KBTV 220200 AAA
TAFBTV
TAF AMD
KBTV 220205Z 2202/2224 18005KT P6SM VCSH OVC035
      TEMPO 2202/2206 5SM -RA BR OVC025
     FM221400 18006KT P6SM BKN040=

USA.gov is the U.S. government's official web portal to all federal, state and local government web resources and services.